Time;durP1;ratioP1;P1;durP2;ratioP2;P2;SDS_P1;SDS_P2;PMS_P1;PMS_P2;Temp;Humidity;BMP_temperature;BMP_pressure;BME280_temperature;BME280_humidity;BME280_pressure;Samples;Min_cycle;Max_cycle;Signal;HPM_P1;HPM_P2
2022/01/02 00:00:15;;;;;;;15.48;4.65;;;;;;;11.39;100.00;101755.50;5000231;28;20433;-50
2022/01/02 00:02:42;;;;;;;16.92;4.32;;;;;;;11.40;100.00;101767.88;4997342;28;20042;-49
2022/01/02 00:05:12;;;;;;;11.52;4.18;;;;;;;11.43;100.00;101770.25;5001233;28;20029;-51
2022/01/02 00:07:50;;;;;;;13.32;5.15;;;;;;;11.45;100.00;101765.59;5014704;28;20376;-50
2022/01/02 00:10:20;;;;;;;13.10;4.53;;;;;;;11.46;100.00;101763.78;5017691;28;20025;-51
2022/01/02 00:12:51;;;;;;;17.77;4.68;;;;;;;11.48;100.00;101784.03;5019801;28;20036;-45
2022/01/02 00:15:19;;;;;;;10.18;4.60;;;;;;;11.46;100.00;101810.09;5021391;28;20188;-45
2022/01/02 00:17:45;;;;;;;12.65;4.78;;;;;;;11.43;100.00;101813.06;5020097;28;20045;-48
2022/01/02 00:20:13;;;;;;;11.93;4.60;;;;;;;11.37;100.00;101809.13;5020718;28;20139;-50
2022/01/02 00:22:41;;;;;;;13.45;4.85;;;;;;;11.34;100.00;101806.72;5019195;28;20029;-50
2022/01/02 00:25:14;;;;;;;14.93;4.60;;;;;;;11.28;100.00;101799.28;5020943;28;20070;-47
2022/01/02 00:27:40;;;;;;;12.30;4.88;;;;;;;11.28;100.00;101795.75;5018896;28;20025;-46
2022/01/02 00:30:06;;;;;;;10.35;4.70;;;;;;;11.28;100.00;101785.06;5002250;28;20546;-49
2022/01/02 00:32:33;;;;;;;19.23;5.22;;;;;;;11.23;100.00;101784.66;5000400;28;20036;-48
2022/01/02 00:35:00;;;;;;;11.73;5.20;;;;;;;11.19;100.00;101774.22;5009549;28;20047;-48
2022/01/02 00:37:25;;;;;;;15.05;5.43;;;;;;;11.16;100.00;101769.16;5000732;28;20353;-49
2022/01/02 00:39:50;;;;;;;15.73;5.22;;;;;;;11.12;100.00;101766.94;5000499;28;20029;-48
2022/01/02 00:42:31;;;;;;;13.57;5.30;;;;;;;11.10;100.00;101759.06;5000218;28;20124;-49
2022/01/02 00:45:05;;;;;;;16.40;4.93;;;;;;;11.07;100.00;101763.84;5000966;28;20081;-48
2022/01/02 00:47:35;;;;;;;12.95;5.57;;;;;;;10.98;100.00;101760.16;5016694;28;20033;-48
2022/01/02 00:50:08;;;;;;;16.95;5.47;;;;;;;10.95;100.00;101760.47;5014270;28;20037;-45
2022/01/02 00:52:36;;;;;;;17.50;5.32;;;;;;;10.91;100.00;101759.06;5007868;28;20551;-47
2022/01/02 00:55:04;;;;;;;15.52;5.10;;;;;;;10.89;100.00;101766.38;5009432;28;20102;-49
2022/01/02 00:57:34;;;;;;;16.85;5.03;;;;;;;10.85;100.00;101770.31;5008073;28;20044;-47
2022/01/02 01:00:08;;;;;;;17.80;5.55;;;;;;;10.85;100.00;101759.63;5009061;28;20077;-47
2022/01/02 01:02:43;;;;;;;12.77;5.10;;;;;;;10.79;100.00;101748.53;4999413;28;20112;-49
2022/01/02 01:05:08;;;;;;;15.82;5.35;;;;;;;10.75;100.00;101760.44;5000787;28;20453;-47
2022/01/02 01:07:36;;;;;;;16.45;5.35;;;;;;;10.68;100.00;101743.31;4998531;28;20056;-46
2022/01/02 01:10:04;;;;;;;15.15;5.13;;;;;;;10.68;100.00;101748.66;4998771;28;20038;-47
2022/01/02 01:12:30;;;;;;;14.20;5.50;;;;;;;10.66;100.00;101739.94;4999002;28;20592;-49
2022/01/02 01:14:55;;;;;;;17.52;6.30;;;;;;;10.64;100.00;101739.19;4999971;28;20026;-50
2022/01/02 01:17:21;;;;;;;17.35;5.57;;;;;;;10.63;100.00;101745.56;5001215;28;20057;-50
2022/01/02 01:19:47;;;;;;;13.73;5.53;;;;;;;10.58;100.00;101732.59;5019256;28;20026;-49
2022/01/02 01:22:12;;;;;;;12.38;5.38;;;;;;;10.58;100.00;101731.75;5018791;28;20044;-50
2022/01/02 01:24:38;;;;;;;16.80;5.88;;;;;;;10.57;100.00;101722.06;5017950;28;20360;-49
2022/01/02 01:27:06;;;;;;;12.02;5.30;;;;;;;10.54;100.00;101725.88;5019379;28;20432;-48
2022/01/02 01:29:34;;;;;;;15.45;5.95;;;;;;;10.51;100.00;101726.13;5012995;28;20046;-48
2022/01/02 01:32:04;;;;;;;17.23;6.32;;;;;;;10.52;100.00;101727.84;5002763;28;20117;-46
2022/01/02 01:34:29;;;;;;;11.45;5.70;;;;;;;10.50;100.00;101719.09;4981863;28;20049;-48
2022/01/02 01:36:55;;;;;;;14.85;5.85;;;;;;;10.45;100.00;101710.66;4999917;28;20488;-47
2022/01/02 01:39:20;;;;;;;25.95;6.43;;;;;;;10.47;100.00;101702.50;4999364;28;20026;-46
2022/01/02 01:41:47;;;;;;;15.95;5.90;;;;;;;10.46;100.00;101704.34;4999279;28;20477;-50
2022/01/02 01:46:39;;;;;;;19.88;6.20;;;;;;;10.43;100.00;101691.25;4998865;28;20054;-49
2022/01/02 01:49:25;;;;;;;15.57;5.80;;;;;;;10.41;100.00;101688.72;5000074;28;20105;-50
2022/01/02 01:51:51;;;;;;;18.33;5.75;;;;;;;10.59;100.00;101677.34;4981381;28;20042;-46
2022/01/02 01:54:16;;;;;;;15.30;5.60;;;;;;;10.60;100.00;101676.38;4999517;28;20613;-48
2022/01/02 01:56:42;;;;;;;21.35;6.20;;;;;;;10.59;100.00;101677.34;4999412;28;20032;-48
2022/01/02 01:59:07;;;;;;;18.38;6.25;;;;;;;10.53;100.00;101665.41;4999083;28;20026;-50
2022/01/02 02:01:33;;;;;;;21.23;5.82;;;;;;;10.54;100.00;101658.22;4999460;28;20091;-50
2022/01/02 02:03:59;;;;;;;19.67;6.28;;;;;;;10.54;100.00;101658.22;5000094;28;20109;-49
2022/01/02 02:06:25;;;;;;;21.65;6.00;;;;;;;10.52;100.00;101649.50;5000094;28;20037;-46
2022/01/02 02:08:52;;;;;;;15.45;5.80;;;;;;;10.51;100.00;101642.50;5000016;28;20488;-45
2022/01/02 02:11:20;;;;;;;18.80;5.80;;;;;;;10.52;100.00;101645.03;5003138;28;20029;-48
2022/01/02 02:13:46;;;;;;;23.75;6.57;;;;;;;10.53;100.00;101628.00;5001977;28;20156;-49
2022/01/02 02:16:11;;;;;;;20.92;5.97;;;;;;;10.71;100.00;101633.50;5002382;28;20029;-50
2022/01/02 02:18:36;;;;;;;20.17;5.65;;;;;;;10.77;100.00;101646.25;5002411;28;20065;-48
2022/01/02 02:21:02;;;;;;;18.58;5.90;;;;;;;10.77;100.00;101634.72;4985549;28;20173;-47
2022/01/02 02:23:27;;;;;;;18.52;5.90;;;;;;;10.80;100.00;101629.13;5002405;28;20425;-49
2022/01/02 02:25:53;;;;;;;18.88;5.53;;;;;;;10.82;100.00;101632.47;5003803;28;20022;-49
2022/01/02 02:28:18;;;;;;;23.40;6.13;;;;;;;10.81;100.00;101614.75;5002422;28;20129;-51
2022/01/02 02:30:46;;;;;;;17.40;5.68;;;;;;;10.76;100.00;101611.66;5002732;28;20030;-46
2022/01/02 02:33:13;;;;;;;19.92;5.40;;;;;;;10.74;100.00;101608.28;5003019;28;20026;-50
2022/01/02 02:35:41;;;;;;;15.43;5.55;;;;;;;10.72;100.00;101611.09;5002088;28;20025;-50
2022/01/02 02:38:08;;;;;;;19.05;5.57;;;;;;;10.73;100.00;101604.78;5002653;28;20448;-48
2022/01/02 02:40:35;;;;;;;20.88;5.95;;;;;;;10.78;100.00;101601.69;5002032;28;20080;-48
2022/01/02 02:43:09;;;;;;;22.38;6.05;;;;;;;10.79;100.00;101603.38;5001853;28;20045;-50
2022/01/02 02:51:26;;;;;;;23.45;6.00;;;;;;;10.79;100.00;101580.19;5002166;28;20125;-49
2022/01/02 02:53:52;;;;;;;20.42;5.70;;;;;;;10.80;100.00;101584.53;4983843;28;20500;-48
2022/01/02 02:56:41;;;;;;;19.00;5.57;;;;;;;10.83;100.00;101578.91;5002383;28;20121;-50
2022/01/02 02:59:06;;;;;;;20.55;5.45;;;;;;;10.88;100.00;101574.94;5001524;28;20037;-48
2022/01/02 03:01:32;;;;;;;20.33;5.38;;;;;;;10.94;100.00;101593.91;5001775;28;20485;-50
2022/01/02 03:03:57;;;;;;;16.70;5.40;;;;;;;11.00;100.00;101584.47;5002435;28;20051;-49
2022/01/02 03:06:23;;;;;;;20.25;6.13;;;;;;;11.10;100.00;101571.91;5001718;28;20030;-47
2022/01/02 03:08:49;;;;;;;24.02;5.68;;;;;;;11.10;100.00;101574.59;5001743;28;20380;-50
2022/01/02 03:11:18;;;;;;;22.88;5.45;;;;;;;11.14;100.00;101578.66;5001849;28;20042;-50
2022/01/02 03:13:46;;;;;;;22.67;6.03;;;;;;;11.14;100.00;101573.31;5000740;28;20034;-48
2022/01/02 03:16:11;;;;;;;29.27;6.07;;;;;;;11.15;100.00;101583.03;4984453;28;20041;-48
2022/01/02 03:18:38;;;;;;;21.90;5.32;;;;;;;11.24;100.00;101593.81;5001286;28;20049;-46
2022/01/02 03:21:03;;;;;;;18.35;5.22;;;;;;;11.24;100.00;101596.50;5001285;28;20149;-49
2022/01/02 03:23:29;;;;;;;21.95;5.05;;;;;;;11.19;100.00;101580.88;5000898;28;20037;-47
2022/01/02 03:25:55;;;;;;;16.83;5.38;;;;;;;11.11;100.00;101578.09;5002489;28;20026;-50
2022/01/02 03:28:20;;;;;;;16.23;5.47;;;;;;;11.10;100.00;101587.09;5001171;28;20045;-48
2022/01/02 03:30:45;;;;;;;25.17;5.68;;;;;;;11.05;100.00;101578.66;5001751;28;20825;-49
2022/01/02 03:33:11;;;;;;;20.95;5.15;;;;;;;11.00;100.00;101571.13;5002224;28;20021;-48
2022/01/02 03:35:37;;;;;;;18.83;5.63;;;;;;;10.97;100.00;101577.59;5001408;28;20026;-47
2022/01/02 03:38:03;;;;;;;26.13;5.93;;;;;;;10.94;100.00;101575.19;5001659;28;20148;-50
2022/01/02 03:40:29;;;;;;;16.48;5.43;;;;;;;10.93;100.00;101576.19;5000473;28;20010;-48
2022/01/02 03:42:54;;;;;;;24.67;6.38;;;;;;;10.89;100.00;101569.44;5001115;28;20040;-48
2022/01/02 03:45:19;;;;;;;27.25;6.13;;;;;;;10.87;100.00;101574.09;5001776;28;20075;-49
2022/01/02 03:47:45;;;;;;;25.20;5.78;;;;;;;10.80;100.00;101557.81;5001265;28;20034;-51
2022/01/02 03:50:11;;;;;;;19.88;5.80;;;;;;;10.80;100.00;101570.31;5001846;28;20041;-48
2022/01/02 03:52:36;;;;;;;19.98;5.75;;;;;;;10.78;100.00;101562.44;4982804;28;20010;-51
2022/01/02 03:55:03;;;;;;;16.10;5.50;;;;;;;10.75;100.00;101572.59;5001370;28;20029;-51
2022/01/02 03:57:28;;;;;;;19.67;6.10;;;;;;;10.72;100.00;101564.84;5000604;28;20045;-51
2022/01/02 03:59:53;;;;;;;24.25;6.28;;;;;;;10.69;100.00;101552.63;5001032;28;20404;-47
2022/01/02 04:02:19;;;;;;;19.02;6.20;;;;;;;10.67;100.00;101546.59;5001512;28;20132;-46
2022/01/02 04:04:44;;;;;;;20.77;6.45;;;;;;;10.64;100.00;101528.16;5000937;28;20037;-50
2022/01/02 04:07:09;;;;;;;22.02;6.53;;;;;;;10.61;100.00;101531.97;5001208;28;20167;-51
2022/01/02 04:09:35;;;;;;;26.63;7.07;;;;;;;10.61;100.00;101531.16;5000035;28;20412;-50
2022/01/02 04:12:00;;;;;;;23.33;6.53;;;;;;;10.58;100.00;101518.91;5000581;28;20128;-50
2022/01/02 04:14:25;;;;;;;22.10;6.75;;;;;;;10.56;100.00;101528.06;5001641;28;20029;-48
2022/01/02 04:16:51;;;;;;;22.67;6.93;;;;;;;10.55;100.00;101534.38;5000209;28;20064;-49
2022/01/02 04:19:16;;;;;;;21.17;6.30;;;;;;;10.54;100.00;101525.53;4982656;28;20034;-48
2022/01/02 04:21:42;;;;;;;19.58;6.28;;;;;;;10.55;100.00;101516.53;5000241;28;20202;-50
2022/01/02 04:24:07;;;;;;;23.92;5.93;;;;;;;10.58;100.00;101520.75;5000938;28;20123;-48
2022/01/02 04:26:32;;;;;;;24.02;6.35;;;;;;;10.53;100.00;101521.19;5000443;28;20629;-48
2022/01/02 04:28:58;;;;;;;24.85;6.35;;;;;;;10.57;100.00;101519.91;5000113;28;20029;-48
2022/01/02 04:31:24;;;;;;;21.67;5.70;;;;;;;10.62;100.00;101522.13;5000385;28;20127;-46
2022/01/02 04:33:49;;;;;;;21.30;5.75;;;;;;;10.69;100.00;101514.38;5000343;28;20022;-45
2022/01/02 04:36:15;;;;;;;23.35;6.28;;;;;;;10.70;100.00;101505.41;5000099;28;20068;-49
2022/01/02 04:38:42;;;;;;;19.70;6.05;;;;;;;10.70;100.00;101498.22;4999273;28;20049;-50
2022/01/02 04:41:07;;;;;;;22.27;6.07;;;;;;;10.71;100.00;101491.91;5000638;28;20025;-45
2022/01/02 04:43:33;;;;;;;16.20;5.47;;;;;;;10.64;100.00;101480.09;4999038;28;20485;-49
2022/01/02 04:45:58;;;;;;;23.83;6.50;;;;;;;10.67;100.00;101493.16;5000897;28;20079;-47
2022/01/02 04:48:24;;;;;;;25.27;6.35;;;;;;;10.65;100.00;101479.09;5000666;28;20298;-49
2022/01/02 04:50:50;;;;;;;35.08;6.68;;;;;;;10.60;100.00;101474.19;4999993;28;20052;-49
2022/01/02 04:53:16;;;;;;;23.02;6.10;;;;;;;10.57;100.00;101471.84;4999630;28;20507;-47
2022/01/02 04:55:41;;;;;;;24.40;6.25;;;;;;;10.56;100.00;101455.97;4999867;28;20030;-50
2022/01/02 04:58:06;;;;;;;25.42;6.35;;;;;;;10.54;100.00;101449.91;4999282;28;20402;-47
2022/01/02 05:00:32;;;;;;;26.85;6.38;;;;;;;10.51;100.00;101447.53;5000164;28;20697;-49
2022/01/02 05:02:57;;;;;;;19.27;6.28;;;;;;;10.49;100.00;101437.00;5000633;28;20081;-49
2022/01/02 05:05:23;;;;;;;21.77;6.20;;;;;;;10.45;100.00;101431.13;5004540;28;20025;-48
2022/01/02 05:07:48;;;;;;;26.92;6.75;;;;;;;10.43;100.00;101434.91;4990879;28;20606;-46
2022/01/02 05:10:14;;;;;;;24.88;6.50;;;;;;;10.38;100.00;101418.47;5010058;28;20076;-45
2022/01/02 05:12:39;;;;;;;20.88;7.00;;;;;;;10.38;100.00;101421.97;5007244;28;20037;-50
2022/01/02 05:15:05;;;;;;;22.40;7.25;;;;;;;10.35;100.00;101418.75;5009819;28;20372;-50
2022/01/02 05:17:30;;;;;;;24.38;6.53;;;;;;;10.33;100.00;101418.06;5009211;28;20088;-45
2022/01/02 05:19:56;;;;;;;26.75;6.93;;;;;;;10.32;100.00;101413.72;5010147;28;20472;-50
2022/01/02 05:22:21;;;;;;;22.05;6.85;;;;;;;10.27;100.00;101401.63;5008601;28;20033;-49
2022/01/02 05:24:46;;;;;;;24.55;6.55;;;;;;;10.28;100.00;101399.78;5008347;28;20044;-48
2022/01/02 05:27:12;;;;;;;28.92;7.25;;;;;;;10.26;100.00;101389.25;5009790;28;20527;-50
2022/01/02 05:29:37;;;;;;;19.40;6.72;;;;;;;10.25;100.00;101392.91;5008097;28;20025;-50
2022/01/02 05:32:03;;;;;;;23.13;6.90;;;;;;;10.26;100.00;101380.41;5010161;28;20322;-49
2022/01/02 05:34:28;;;;;;;21.45;6.75;;;;;;;10.26;100.00;101380.41;5009455;28;20101;-50
2022/01/02 05:36:54;;;;;;;22.95;6.75;;;;;;;10.24;100.00;101380.56;5008166;28;20014;-46
2022/01/02 05:39:20;;;;;;;25.23;6.85;;;;;;;10.21;100.00;101377.34;5009288;28;20380;-49
2022/01/02 05:41:46;;;;;;;16.77;6.22;;;;;;;10.27;100.00;101382.09;5008076;28;20058;-49
2022/01/02 05:44:13;;;;;;;26.38;7.45;;;;;;;10.29;100.00;101382.78;5012201;28;20032;-47
2022/01/02 05:46:38;;;;;;;19.83;6.25;;;;;;;10.28;100.00;101367.75;5011873;28;20334;-45
2022/01/02 05:49:04;;;;;;;23.00;6.43;;;;;;;10.27;100.00;101355.41;5013524;28;20020;-49
2022/01/02 05:51:29;;;;;;;19.02;6.10;;;;;;;10.26;100.00;101361.72;5012868;28;20161;-49
2022/01/02 05:53:54;;;;;;;18.77;5.88;;;;;;;10.25;100.00;101336.84;4994184;28;20021;-50
2022/01/02 05:56:19;;;;;;;23.30;6.78;;;;;;;10.25;100.00;101333.31;5013847;28;20041;-48
2022/01/02 05:58:45;;;;;;;18.27;5.68;;;;;;;10.26;100.00;101343.03;5011484;28;20297;-49
2022/01/02 06:01:10;;;;;;;19.75;6.25;;;;;;;10.21;100.00;101316.78;5017992;28;20082;-49
2022/01/02 06:03:35;;;;;;;19.45;5.95;;;;;;;10.24;100.00;101303.13;5004701;28;20139;-48
2022/01/02 06:06:01;;;;;;;22.95;5.70;;;;;;;10.22;100.00;101304.28;5019292;28;20502;-51
2022/01/02 06:08:26;;;;;;;20.88;6.30;;;;;;;10.22;100.00;101293.59;5003036;28;20037;-49
2022/01/02 06:10:52;;;;;;;21.90;6.43;;;;;;;10.24;100.00;101287.13;5003529;28;20030;-50
2022/01/02 06:13:17;;;;;;;25.73;6.18;;;;;;;10.31;100.00;101279.34;5002695;28;20029;-50
2022/01/02 06:15:42;;;;;;;25.63;6.00;;;;;;;10.35;100.00;101274.59;5003732;28;20120;-50
2022/01/02 06:18:08;;;;;;;16.27;5.70;;;;;;;10.36;100.00;101253.09;5003361;28;20451;-48
2022/01/02 06:20:33;;;;;;;13.20;6.00;;;;;;;10.38;100.00;101269.78;5002057;28;20506;-47
2022/01/02 06:22:58;;;;;;;20.30;5.85;;;;;;;10.39;100.00;101266.13;5002835;28;20032;-46
2022/01/02 06:25:24;;;;;;;23.15;6.32;;;;;;;10.39;100.00;101249.28;5003003;28;20037;-49
2022/01/02 06:27:49;;;;;;;17.85;6.43;;;;;;;10.38;100.00;101240.41;5001813;28;20044;-47
2022/01/02 06:30:15;;;;;;;14.40;5.40;;;;;;;10.44;100.00;101220.31;5003138;28;20054;-47
2022/01/02 06:32:40;;;;;;;18.48;5.43;;;;;;;10.44;100.00;101206.97;5002580;28;20048;-46
2022/01/02 06:35:06;;;;;;;24.65;5.97;;;;;;;10.43;100.00;101203.41;5003271;28;20029;-50
2022/01/02 06:37:31;;;;;;;16.73;5.88;;;;;;;10.41;100.00;101200.06;5002015;28;20101;-46
2022/01/02 06:39:57;;;;;;;19.90;5.65;;;;;;;10.40;100.00;101187.72;5002111;28;20026;-46
2022/01/02 06:42:22;;;;;;;18.73;6.10;;;;;;;10.38;100.00;101194.19;5002628;28;20080;-47
2022/01/02 06:44:48;;;;;;;24.35;5.70;;;;;;;10.36;100.00;101182.84;5002468;28;20061;-46
2022/01/02 06:47:14;;;;;;;17.50;5.60;;;;;;;10.32;100.00;101179.63;5003011;28;20222;-48
2022/01/02 06:49:40;;;;;;;16.42;5.38;;;;;;;10.31;100.00;101161.06;4985059;28;20025;-49
2022/01/02 06:52:06;;;;;;;21.65;5.85;;;;;;;10.30;100.00;101162.03;5002589;28;20108;-47
2022/01/02 06:54:32;;;;;;;16.60;5.82;;;;;;;10.30;100.00;101157.53;5001213;28;20154;-48
2022/01/02 06:56:57;;;;;;;19.33;5.55;;;;;;;10.27;100.00;101164.03;5001398;28;20092;-47
2022/01/02 06:59:22;;;;;;;20.15;5.65;;;;;;;10.31;100.00;101169.06;5002554;28;20037;-49
2022/01/02 07:01:48;;;;;;;15.13;5.13;;;;;;;10.37;100.00;101171.16;5002420;28;20025;-48
2022/01/02 07:04:13;;;;;;;14.80;4.82;;;;;;;10.38;100.00;101165.66;5002422;28;20097;-49
2022/01/02 07:06:38;;;;;;;19.65;6.28;;;;;;;10.36;100.00;101156.13;5001583;28;20022;-49
2022/01/02 07:09:05;;;;;;;15.55;5.10;;;;;;;10.34;100.00;101145.59;5002215;28;20065;-48
2022/01/02 07:11:30;;;;;;;18.55;5.35;;;;;;;10.34;100.00;101145.59;5001456;28;20156;-47
2022/01/02 07:13:56;;;;;;;17.08;4.68;;;;;;;10.36;100.00;101148.13;5003059;28;20101;-47
2022/01/02 07:16:21;;;;;;;16.48;5.35;;;;;;;10.36;100.00;101143.63;5002383;28;20340;-47
2022/01/02 07:18:46;;;;;;;15.95;4.72;;;;;;;10.34;100.00;101150.13;5001346;28;20056;-47
2022/01/02 07:21:13;;;;;;;13.65;5.35;;;;;;;10.33;100.00;101143.91;5002483;28;20029;-50
2022/01/02 07:23:38;;;;;;;13.25;4.65;;;;;;;10.35;100.00;101138.44;5001219;28;20025;-51
2022/01/02 07:26:04;;;;;;;17.30;5.40;;;;;;;10.36;100.00;101134.78;5002505;28;20026;-46
2022/01/02 07:28:33;;;;;;;12.82;5.00;;;;;;;10.35;100.00;101131.28;5001240;28;20022;-50
2022/01/02 07:30:58;;;;;;;11.60;4.65;;;;;;;10.35;100.00;101122.41;5002346;28;20096;-47
2022/01/02 07:33:24;;;;;;;15.43;4.70;;;;;;;10.35;100.00;101115.25;5002365;28;20022;-48
2022/01/02 07:35:49;;;;;;;21.25;4.78;;;;;;;10.35;100.00;101080.56;5001338;28;20365;-49
2022/01/02 07:38:14;;;;;;;17.65;5.32;;;;;;;10.34;100.00;101089.53;5001530;28;20025;-46
2022/01/02 07:40:40;;;;;;;14.02;4.55;;;;;;;10.33;100.00;101090.53;5001696;28;20026;-49
2022/01/02 07:43:05;;;;;;;14.88;4.47;;;;;;;10.32;100.00;101091.53;5000993;28;20045;-48
2022/01/02 07:45:30;;;;;;;13.77;4.68;;;;;;;10.35;100.00;101101.06;5001240;28;20047;-47
2022/01/02 07:47:55;;;;;;;13.25;4.35;;;;;;;10.39;100.00;101092.59;5002024;28;20455;-49
2022/01/02 07:50:22;;;;;;;16.73;4.97;;;;;;;10.37;100.00;101112.41;5001720;28;20018;-49
2022/01/02 07:52:48;;;;;;;13.77;4.50;;;;;;;10.35;100.00;101149.97;5000706;28;20033;-50
2022/01/02 07:55:13;;;;;;;13.52;4.57;;;;;;;10.33;100.00;101151.94;5000426;28;20371;-49
2022/01/02 07:57:38;;;;;;;10.65;4.40;;;;;;;10.30;100.00;101154.84;5000344;28;20124;-49
2022/01/02 08:00:05;;;;;;;11.43;4.32;;;;;;;10.29;100.00;101152.38;5001733;28;20429;-47
2022/01/02 08:02:30;;;;;;;15.02;4.95;;;;;;;10.30;100.00;101154.84;5000985;28;20053;-49
2022/01/02 08:04:55;;;;;;;10.63;4.75;;;;;;;10.35;100.00;101160.66;5001643;28;20452;-50
2022/01/02 08:07:20;;;;;;;15.68;5.25;;;;;;;10.36;100.00;101154.28;4999667;28;20030;-50
2022/01/02 08:09:46;;;;;;;11.30;4.88;;;;;;;10.38;100.00;101151.47;5000316;28;20029;-46
2022/01/02 08:12:11;;;;;;;14.75;4.25;;;;;;;10.45;100.00;101152.53;5000013;28;20163;-49
2022/01/02 08:14:36;;;;;;;10.90;4.57;;;;;;;10.45;100.00;101157.88;4999927;28;20034;-48
2022/01/02 08:17:02;;;;;;;13.23;4.68;;;;;;;10.48;100.00;101170.94;5001370;28;20054;-48
2022/01/02 08:19:27;;;;;;;11.30;4.53;;;;;;;10.52;100.00;101156.31;4983182;28;20036;-48
2022/01/02 08:21:52;;;;;;;10.45;4.55;;;;;;;10.58;100.00;101168.19;5000800;28;20847;-48
2022/01/02 08:24:18;;;;;;;11.57;4.38;;;;;;;10.63;100.00;101164.06;5000722;28;20030;-45
2022/01/02 08:26:43;;;;;;;10.68;4.45;;;;;;;10.66;100.00;101167.41;4981727;28;20489;-45
2022/01/02 08:29:08;;;;;;;12.25;4.18;;;;;;;10.70;100.00;101169.63;5001340;28;20068;-50
2022/01/02 08:31:35;;;;;;;15.48;3.75;;;;;;;10.77;100.00;101164.50;5002795;28;20507;-49
2022/01/02 08:34:00;;;;;;;10.38;4.30;;;;;;;10.64;100.00;101140.84;5000210;28;20040;-45
2022/01/02 08:36:26;;;;;;;13.18;4.43;;;;;;;10.50;100.00;101149.41;5000788;28;20033;-48
2022/01/02 08:38:51;;;;;;;15.20;4.47;;;;;;;10.37;100.00;101168.47;5000779;28;20030;-47
2022/01/02 08:41:17;;;;;;;9.10;4.30;;;;;;;10.29;100.00;101161.22;5017704;28;20096;-48
2022/01/02 08:43:43;;;;;;;11.68;5.03;;;;;;;10.23;100.00;101156.47;5020140;28;20108;-49
2022/01/02 08:46:09;;;;;;;15.05;4.80;;;;;;;10.19;100.00;101161.28;5020283;28;20097;-49
2022/01/02 08:48:35;;;;;;;12.10;4.20;;;;;;;10.19;100.00;101158.59;5019729;28;20026;-50
2022/01/02 08:51:00;;;;;;;14.65;4.60;;;;;;;10.36;100.00;101164.16;5020430;28;20159;-49
2022/01/02 08:53:27;;;;;;;13.82;4.75;;;;;;;10.36;100.00;101178.31;5020291;28;20172;-47
2022/01/02 08:55:53;;;;;;;12.80;4.47;;;;;;;10.40;100.00;101171.72;5014673;28;20171;-46
2022/01/02 08:58:19;;;;;;;15.15;5.00;;;;;;;10.38;100.00;101164.81;4988198;28;20121;-46
2022/01/02 09:00:45;;;;;;;13.02;5.22;;;;;;;10.40;100.00;101165.50;5000598;28;20030;-50
2022/01/02 09:03:10;;;;;;;13.40;4.43;;;;;;;10.40;100.00;101169.03;5002758;28;20034;-50
2022/01/02 09:05:35;;;;;;;14.88;5.22;;;;;;;10.42;100.00;101160.84;4999277;28;20030;-51
2022/01/02 09:08:01;;;;;;;9.65;5.22;;;;;;;10.46;100.00;101159.56;4999660;28;20075;-48
2022/01/02 09:10:26;;;;;;;15.98;5.43;;;;;;;10.52;100.00;101161.63;4999153;28;20381;-50
2022/01/02 09:12:51;;;;;;;20.58;5.53;;;;;;;10.59;100.00;101151.16;5004776;28;20512;-52
2022/01/02 09:15:17;;;;;;;13.27;5.40;;;;;;;10.60;100.00;101158.19;5019880;28;20112;-52
2022/01/02 09:17:42;;;;;;;19.55;5.88;;;;;;;10.64;100.00;101159.53;5020612;28;20056;-49
2022/01/02 09:20:09;;;;;;;16.20;5.45;;;;;;;10.67;100.00;101159.25;5025101;28;20461;-52
2022/01/02 09:22:37;;;;;;;14.50;5.78;;;;;;;10.74;100.00;101160.34;5022998;28;20021;-51
2022/01/02 09:25:03;;;;;;;15.80;5.38;;;;;;;10.78;100.00;101168.88;5008254;28;20117;-51
2022/01/02 09:27:28;;;;;;;13.60;5.38;;;;;;;10.82;100.00;101163.03;5001919;28;20025;-45
2022/01/02 09:29:54;;;;;;;11.48;5.93;;;;;;;10.84;100.00;101173.56;5011401;28;20392;-47
2022/01/02 09:32:19;;;;;;;16.95;5.70;;;;;;;10.90;100.00;101159.59;5003336;28;20125;-47
2022/01/02 09:34:45;;;;;;;15.68;6.25;;;;;;;10.92;100.00;101170.16;5002246;28;20029;-46
2022/01/02 09:37:11;;;;;;;16.88;5.80;;;;;;;10.94;100.00;101166.31;5003273;28;20041;-45
2022/01/02 09:39:36;;;;;;;19.13;6.13;;;;;;;10.95;100.00;101178.69;5002592;28;20034;-49
2022/01/02 09:42:03;;;;;;;18.02;6.22;;;;;;;10.96;100.00;101179.50;5003122;28;20021;-45
2022/01/02 09:44:29;;;;;;;17.35;6.05;;;;;;;10.95;100.00;101178.69;5003384;28;20376;-51
2022/01/02 09:46:55;;;;;;;18.55;6.53;;;;;;;10.94;100.00;101168.16;5009252;28;20025;-51
2022/01/02 09:49:21;;;;;;;14.65;6.85;;;;;;;10.96;100.00;101175.03;5042595;28;20225;-51
2022/01/02 09:51:47;;;;;;;16.77;6.55;;;;;;;10.98;100.00;101189.06;5041523;28;20024;-52
2022/01/02 09:54:13;;;;;;;17.55;6.80;;;;;;;11.01;100.00;101169.19;5041393;28;20146;-50
2022/01/02 09:56:38;;;;;;;20.75;7.07;;;;;;;11.11;100.00;101177.94;5039897;28;20108;-50
2022/01/02 09:59:04;;;;;;;15.27;6.75;;;;;;;11.27;100.00;101169.22;5017729;28;20113;-51
2022/01/02 10:01:32;;;;;;;18.70;7.22;;;;;;;11.46;100.00;101176.19;5022063;28;20380;-51
2022/01/02 10:03:58;;;;;;;17.30;7.40;;;;;;;11.65;100.00;101171.59;5022439;28;20399;-50
2022/01/02 10:06:48;;;;;;;14.18;6.57;;;;;;;11.72;100.00;101169.94;5022322;28;20029;-51
2022/01/02 10:09:37;;;;;;;16.00;6.97;;;;;;;11.73;100.00;101177.81;5004136;28;20021;-49
2022/01/02 10:12:31;;;;;;;14.57;7.25;;;;;;;11.76;100.00;101179.31;5021434;28;20594;-50
2022/01/02 10:15:24;;;;;;;18.80;7.22;;;;;;;11.79;100.00;101157.59;5002056;28;20034;-49
2022/01/02 10:18:09;;;;;;;19.60;7.13;;;;;;;11.81;100.00;101170.81;4993456;28;20536;-51
2022/01/02 10:20:39;;;;;;;25.50;6.88;;;;;;;11.84;100.00;101181.19;5001527;28;20654;-51
2022/01/02 10:23:24;;;;;;;16.58;7.13;;;;;;;11.85;100.00;101178.38;4984599;28;20117;-46
2022/01/02 10:25:55;;;;;;;14.73;6.88;;;;;;;11.82;100.00;101169.81;5001172;28;20040;-48
2022/01/02 10:28:20;;;;;;;;;;;;;;;11.82;100.00;101170.66;5002378;28;20109;-49
2022/01/02 10:30:48;;;;;;;18.15;6.45;;;;;;;11.79;100.00;101172.81;5001107;28;20016;-48
2022/01/02 10:33:13;;;;;;;16.95;6.78;;;;;;;11.76;100.00;101160.59;5001660;28;20334;-46
2022/01/02 10:35:40;;;;;;;21.30;6.75;;;;;;;11.81;100.00;101168.13;5001855;28;20040;-51
2022/01/02 10:38:06;;;;;;;25.55;7.20;;;;;;;11.76;100.00;101140.03;5002394;28;20201;-47
2022/01/02 10:40:38;;;;;;;19.10;6.63;;;;;;;11.86;100.00;101147.09;5001887;28;20444;-51
2022/01/02 10:43:07;;;;;;;15.82;6.50;;;;;;;11.92;100.00;101151.81;5002545;28;20435;-46
2022/01/02 10:45:51;;;;;;;19.02;6.28;;;;;;;11.92;100.00;101154.50;5001921;28;20177;-51
2022/01/02 10:48:31;;;;;;;17.83;6.65;;;;;;;11.94;100.00;101161.34;4984202;28;20444;-47
2022/01/02 10:50:59;;;;;;;16.90;6.10;;;;;;;11.94;100.00;101155.19;5002390;28;20053;-47
2022/01/02 10:53:25;;;;;;;17.25;5.88;;;;;;;11.98;100.00;101144.97;5000599;28;20125;-45
2022/01/02 10:55:50;;;;;;;20.70;6.30;;;;;;;11.98;100.00;101153.84;5000202;28;20037;-47
2022/01/02 10:58:15;;;;;;;19.27;6.70;;;;;;;12.00;100.00;101151.84;5001634;28;20037;-47
2022/01/02 11:00:42;;;;;;;18.95;6.22;;;;;;;12.02;100.00;101165.09;4983476;28;20032;-50
2022/01/02 11:03:07;;;;;;;15.05;5.80;;;;;;;12.06;100.00;101161.06;5001627;28;20461;-46
2022/01/02 11:05:35;;;;;;;18.35;6.63;;;;;;;12.08;100.00;101164.41;5003572;28;20356;-48
2022/01/02 11:08:01;;;;;;;24.67;6.55;;;;;;;12.13;100.00;101170.97;5011877;28;20034;-51
2022/01/02 11:10:28;;;;;;;10.35;4.95;;;;;;;12.21;100.00;101162.09;5009647;28;20030;-50
2022/01/02 11:12:56;;;;;;;18.23;5.95;;;;;;;12.25;100.00;101163.47;5010439;28;20079;-50
2022/01/02 11:15:23;;;;;;;21.10;6.07;;;;;;;12.31;100.00;101153.94;5006554;28;20037;-48